San Antonio, Texas
Traffic Map
Current Weather Conditions
San Antonio, Texas
Clear
Clear
13°
Feels Like: 13°
Wind Chill: 13° Ceiling: Unl
Heat Index: 13° Visibility: 10mi
Dew Point: 11° Wind: 2mph
Humidity: 84% Direction: 340° (NNW)
Pressure: 30.07in Gusts: 0mph
Raw Report DataKSKF 040758Z AUTO 34002KT 10SM CLR 13/11 A3007 RMK AO2 SLP179 T01340107 $
Traffic Incident Summary
Active as of:
Severity:
Category:
InformationThere was an issue retrieving the traffic information for this location. Please try a different location or try again shortly.
Advertisements
Track Severe Weather on mobile